Etusivu
METAR-TAF:

METAR-TAF

Lentoasemat :

Mitiga International Airport

Tripoli, Libya

Leveyspiiri: 32-54N, Pituuspiiri: 13-17E, korkeus merenpinnasta: 11 m

METAR: puuttuu

Aika: 12:52 (10:52 UTC)

Sääennuste

Tämä raportti tehtiin 29 tuntia ja 52 minuuttia sitten, kello 05.00 UTC
Ennuste voimassa 17. päivästä klo 06 UTC - 18. päivään klo 06 UTC
Tuuli 2 kn eri suunnista
Näkyvyys: 8000 m
Hajanaisia pilviä 3000 ft:n korkeudessa
Tulossa
17. päivästä klo 14 UTC - 17. päivään klo 16 UTC
Tuuli 12 kn koillisesta
Tulossa
17. päivästä klo 20 UTC - 17. päivään klo 22 UTC
Tuuli 2 kn eri suunnista

TAF: HLLM 170500Z 1706/1806 VRB02KT 8000 SCT030 BECMG 1714/1716 04012KT BECMG 1720/1722 VRB02KT

Säähavainnot ja -ennusteet yli 4000 lentoasemalta (METAR- ja TAF-raportit).

Käytössä olevat sääasemat on merkitty karttaan keltaisilla ja punaisilla pisteillä.

Aseta hiiri pisteen päälle nähdäksesi sääaseman nimen.

Klikkaa sitten nähdäksesi säähavainnot ja -ennusteet.

Kartan vaihtaminen: klikkaa mustalla rastilla varustettuja vihreitä pisteitä, niin voit zoomata sisään; viivalla varustettua vihreää pistettä, niin voit zoomata ulos tai vihreitä nuolia, niin pääset viereisille kartoille.


METAR-TAF: